createdAt,value
2023-03-25T00:01:47.557Z,5.28
2023-03-25T00:04:17.721Z,6.03
2023-03-25T00:06:48.680Z,6.47
2023-03-25T00:09:16.605Z,6.47
2023-03-25T00:11:44.232Z,6.35
2023-03-25T00:14:17.102Z,6.45
2023-03-25T00:16:48.350Z,5.50
2023-03-25T00:19:17.423Z,7.15
2023-03-25T00:21:45.543Z,6.03
2023-03-25T00:24:17.761Z,6.65
2023-03-25T00:26:46.139Z,5.05
2023-03-25T00:29:14.325Z,6.05
2023-03-25T00:31:42.448Z,6.57
2023-03-25T00:34:14.190Z,6.22
2023-03-25T00:36:43.755Z,5.03
2023-03-25T00:39:11.756Z,7.55
2023-03-25T00:41:42.043Z,7.60
2023-03-25T00:44:12.606Z,5.35
2023-03-25T00:46:40.269Z,8.07
2023-03-25T00:49:08.191Z,8.65
2023-03-25T00:51:35.882Z,8.32
2023-03-25T00:54:22.615Z,8.68
2023-03-25T00:56:50.750Z,9.77
2023-03-25T00:59:18.373Z,10.00
2023-03-25T01:01:47.038Z,8.32
2023-03-25T01:04:16.618Z,7.22
2023-03-25T01:06:44.838Z,6.18
2023-03-25T01:09:15.436Z,8.02
2023-03-25T01:11:46.144Z,6.28
2023-03-25T01:14:16.404Z,7.85
2023-03-25T01:16:44.539Z,6.75
2023-03-25T01:19:12.300Z,7.90
2023-03-25T01:21:40.167Z,8.60
2023-03-25T01:24:12.968Z,6.95
2023-03-25T01:26:43.436Z,8.63
2023-03-25T01:29:12.934Z,8.85
2023-03-25T01:31:41.114Z,9.23
2023-03-25T01:34:09.523Z,6.45
2023-03-25T01:36:37.499Z,8.68
2023-03-25T01:39:06.318Z,6.75
2023-03-25T01:41:48.514Z,7.25
2023-03-25T01:44:56.254Z,6.40
2023-03-25T01:47:26.702Z,9.18
2023-03-25T01:49:54.559Z,6.35
2023-03-25T01:52:26.465Z,5.90
2023-03-25T01:54:56.581Z,8.02
2023-03-25T01:57:26.061Z,7.75
2023-03-25T01:59:55.763Z,8.20
2023-03-25T02:02:36.409Z,5.60
2023-03-25T02:05:10.502Z,7.68
2023-03-25T02:07:42.764Z,6.25
2023-03-25T02:10:12.631Z,5.95
2023-03-25T02:12:40.906Z,5.95
2023-03-25T02:15:11.688Z,6.72
2023-03-25T02:17:48.484Z,6.28
2023-03-25T02:20:37.602Z,6.53
2023-03-25T02:23:42.277Z,6.65
2023-03-25T02:26:56.033Z,7.90
2023-03-25T02:29:37.011Z,6.90
2023-03-25T02:32:21.058Z,6.47
2023-03-25T02:35:15.757Z,6.72
2023-03-25T02:38:09.194Z,6.07
2023-03-25T02:40:47.348Z,4.97
2023-03-25T02:43:21.335Z,4.57
2023-03-25T02:45:54.331Z,5.15
2023-03-25T02:48:26.399Z,6.47
2023-03-25T02:50:57.517Z,7.00
2023-03-25T02:53:33.370Z,6.95
2023-03-25T02:56:04.790Z,5.10
2023-03-25T02:58:34.122Z,6.35
2023-03-25T03:01:02.155Z,5.13
2023-03-25T03:03:30.276Z,7.20
2023-03-25T03:06:02.987Z,6.68
2023-03-25T03:08:45.666Z,6.80
2023-03-25T03:11:16.608Z,8.30
2023-03-25T03:14:00.682Z,6.38
2023-03-25T03:16:34.851Z,5.70
2023-03-25T03:19:13.793Z,6.03
2023-03-25T03:21:46.253Z,8.00
2023-03-25T03:24:20.992Z,7.05
2023-03-25T03:26:55.208Z,3.88
2023-03-25T03:29:28.885Z,7.15
2023-03-25T03:32:06.317Z,4.93
2023-03-25T03:34:44.858Z,4.97
2023-03-25T03:37:14.503Z,5.13
2023-03-25T03:39:46.204Z,6.38
2023-03-25T03:42:19.824Z,7.28
2023-03-25T03:44:53.107Z,5.65
2023-03-25T03:47:24.802Z,4.78
2023-03-25T03:49:57.316Z,6.65
2023-03-25T03:52:28.442Z,4.95
2023-03-25T03:55:00.925Z,7.63
2023-03-25T03:57:33.002Z,7.35
2023-03-25T04:00:06.848Z,5.82
2023-03-25T04:02:43.828Z,6.18
2023-03-25T04:05:16.097Z,4.38
2023-03-25T04:07:54.635Z,4.85
2023-03-25T04:10:30.085Z,4.70
2023-03-25T04:13:01.346Z,8.32
2023-03-25T04:15:29.013Z,5.47
2023-03-25T04:17:57.444Z,7.45
2023-03-25T04:20:29.822Z,8.07
2023-03-25T04:22:57.519Z,4.30
2023-03-25T04:25:26.807Z,3.58
2023-03-25T04:27:58.760Z,5.97
2023-03-25T04:30:28.080Z,6.07
2023-03-25T04:32:56.589Z,3.67
2023-03-25T04:35:25.823Z,4.45
2023-03-25T04:37:56.921Z,7.00
2023-03-25T04:40:26.652Z,6.90
2023-03-25T04:42:56.692Z,4.90
2023-03-25T04:45:25.299Z,5.35
2023-03-25T04:47:54.188Z,4.88
2023-03-25T04:50:24.405Z,7.45
2023-03-25T04:52:53.153Z,10.57
2023-03-25T04:55:21.098Z,5.07
2023-03-25T04:57:52.219Z,4.90
2023-03-25T05:00:22.187Z,6.72
2023-03-25T05:02:51.695Z,7.88
2023-03-25T05:05:21.770Z,7.43
2023-03-25T05:07:50.405Z,7.10
2023-03-25T05:10:19.047Z,9.05
2023-03-25T05:12:47.074Z,7.43
2023-03-25T05:15:16.987Z,7.78
2023-03-25T05:17:44.950Z,6.85
2023-03-25T05:20:14.583Z,9.55
2023-03-25T05:22:43.184Z,8.90
2023-03-25T05:25:11.523Z,5.40
2023-03-25T05:27:39.513Z,7.45
2023-03-25T05:30:08.779Z,7.15
2023-03-25T05:32:41.049Z,8.02
2023-03-25T05:35:10.400Z,10.20
2023-03-25T05:37:38.751Z,7.93
2023-03-25T05:40:15.233Z,8.80
2023-03-25T05:42:48.792Z,8.30
2023-03-25T05:45:16.920Z,8.60
2023-03-25T05:47:46.105Z,5.75
2023-03-25T05:50:14.546Z,7.90
2023-03-25T05:52:42.607Z,8.25
2023-03-25T05:55:14.604Z,12.43
2023-03-25T05:57:42.191Z,8.07
2023-03-25T06:00:12.729Z,7.82
2023-03-25T06:02:43.211Z,8.95
2023-03-25T06:05:14.775Z,13.27
2023-03-25T06:07:43.635Z,10.05
2023-03-25T06:10:12.053Z,10.90
2023-03-25T06:12:40.257Z,6.22
2023-03-25T06:15:10.127Z,6.93
2023-03-25T06:17:39.315Z,10.07
2023-03-25T06:20:11.442Z,8.85
2023-03-25T06:22:42.756Z,8.02
2023-03-25T06:25:11.494Z,8.88
2023-03-25T06:27:40.492Z,10.15
2023-03-25T06:30:10.129Z,11.02
2023-03-25T06:32:37.941Z,8.35
2023-03-25T06:35:07.876Z,11.23
2023-03-25T06:37:36.141Z,8.02
2023-03-25T06:40:10.771Z,9.55
2023-03-25T06:42:38.552Z,9.48
2023-03-25T06:45:24.628Z,7.25
2023-03-25T06:48:02.058Z,13.63
2023-03-25T06:50:29.710Z,12.98
2023-03-25T06:52:57.304Z,7.28
2023-03-25T06:55:26.505Z,5.95
2023-03-25T06:57:56.205Z,6.70
2023-03-25T07:00:26.804Z,8.13
2023-03-25T07:02:54.536Z,4.32
2023-03-25T07:05:22.405Z,6.03
2023-03-25T07:07:50.007Z,7.55
2023-03-25T07:10:17.742Z,6.75
2023-03-25T07:12:46.768Z,8.18
2023-03-25T07:15:14.675Z,6.85
2023-03-25T07:17:44.505Z,11.38
2023-03-25T07:20:15.049Z,7.57
2023-03-25T07:22:44.109Z,10.48
2023-03-25T07:25:11.759Z,8.88
2023-03-25T07:27:39.358Z,8.95
2023-03-25T07:30:14.725Z,8.63
2023-03-25T07:32:42.338Z,8.45
2023-03-25T07:35:10.548Z,9.18
2023-03-25T07:37:38.153Z,8.27
2023-03-25T07:40:06.967Z,10.38
2023-03-25T07:42:36.737Z,7.97
2023-03-25T07:45:25.949Z,9.57
2023-03-25T07:47:53.990Z,8.88
2023-03-25T07:50:26.012Z,7.65
2023-03-25T07:52:54.019Z,10.02
2023-03-25T07:55:21.939Z,7.93
2023-03-25T07:57:49.579Z,5.88
2023-03-25T08:00:17.661Z,8.45
2023-03-25T08:02:46.690Z,9.95
2023-03-25T08:05:21.062Z,9.48
2023-03-25T08:07:48.718Z,5.25
2023-03-25T08:10:16.766Z,8.52
2023-03-25T08:12:47.191Z,7.50
2023-03-25T08:15:17.184Z,4.53
2023-03-25T08:17:46.712Z,6.00
2023-03-25T08:20:14.735Z,4.90
2023-03-25T08:22:45.208Z,6.65
2023-03-25T08:25:13.112Z,8.85
2023-03-25T08:27:41.125Z,4.07
2023-03-25T08:30:10.330Z,5.13
2023-03-25T08:32:40.379Z,7.63
2023-03-25T08:35:10.177Z,7.57
2023-03-25T08:37:37.853Z,6.43
2023-03-25T08:40:08.720Z,4.90
2023-03-25T08:42:36.459Z,5.10
2023-03-25T08:45:05.756Z,4.57
2023-03-25T08:47:33.420Z,4.88
2023-03-25T08:50:01.251Z,4.55
2023-03-25T08:52:30.328Z,3.05
2023-03-25T08:54:57.911Z,4.07
2023-03-25T08:57:26.000Z,7.57
2023-03-25T08:59:53.626Z,7.10
2023-03-25T09:02:21.265Z,2.55
2023-03-25T09:04:49.501Z,2.85
2023-03-25T09:07:19.798Z,3.30
2023-03-25T09:09:48.817Z,5.93
2023-03-25T09:12:16.463Z,4.47
2023-03-25T09:14:45.272Z,2.80
2023-03-25T09:17:12.907Z,3.28
2023-03-25T09:19:40.625Z,3.47
2023-03-25T09:22:08.954Z,3.65
2023-03-25T09:24:36.554Z,5.00
2023-03-25T09:27:05.551Z,3.28
2023-03-25T09:29:33.307Z,3.72
2023-03-25T09:32:01.693Z,4.95
2023-03-25T09:34:31.047Z,4.78
2023-03-25T09:36:59.425Z,5.18
2023-03-25T09:39:27.389Z,4.28
2023-03-25T09:42:15.369Z,2.63
2023-03-25T09:44:56.530Z,3.00
2023-03-25T09:47:25.880Z,4.03
2023-03-25T09:50:00.742Z,1.98
2023-03-25T09:52:34.166Z,2.72
2023-03-25T09:55:05.018Z,2.67
2023-03-25T09:57:49.040Z,1.73
2023-03-25T10:00:22.269Z,2.40
2023-03-25T10:02:58.260Z,1.05
2023-03-25T10:05:52.106Z,2.38
2023-03-25T10:08:28.824Z,1.10
2023-03-25T10:11:04.539Z,1.15
2023-03-25T10:13:44.584Z,1.88
2023-03-25T10:16:27.569Z,3.75
2023-03-25T10:19:14.859Z,3.22
2023-03-25T10:21:49.712Z,2.90
2023-03-25T10:24:21.219Z,3.55
2023-03-25T10:26:53.450Z,5.35
2023-03-25T10:29:28.874Z,4.95
2023-03-25T10:32:01.458Z,4.70
2023-03-25T10:34:36.668Z,4.28
2023-03-25T10:37:08.175Z,8.70
2023-03-25T10:39:38.150Z,7.82
2023-03-25T10:42:20.287Z,5.03
2023-03-25T10:44:49.593Z,9.77
2023-03-25T10:47:21.052Z,5.35
2023-03-25T10:49:51.289Z,5.10
2023-03-25T10:52:19.755Z,10.00
2023-03-25T10:54:51.332Z,6.57
2023-03-25T10:57:22.980Z,5.95
2023-03-25T11:00:01.740Z,7.28
2023-03-25T11:02:31.315Z,7.10
2023-03-25T11:05:01.358Z,8.55
2023-03-25T11:07:33.346Z,9.70
2023-03-25T11:10:16.013Z,6.85
2023-03-25T11:12:45.415Z,9.57
2023-03-25T11:15:17.640Z,8.73
2023-03-25T11:17:47.862Z,7.78
2023-03-25T11:20:22.170Z,8.38
2023-03-25T11:22:54.281Z,8.93
2023-03-25T11:25:26.743Z,5.60
2023-03-25T11:27:59.424Z,6.55
2023-03-25T11:30:28.860Z,4.75
2023-03-25T11:33:05.200Z,7.55
2023-03-25T11:35:38.339Z,8.27
2023-03-25T11:38:16.078Z,4.85
2023-03-25T11:40:52.040Z,4.88
2023-03-25T11:43:22.946Z,3.55
2023-03-25T11:45:52.581Z,4.93
2023-03-25T11:48:22.497Z,4.10
2023-03-25T11:50:55.371Z,2.47
2023-03-25T11:53:27.007Z,5.38
2023-03-25T11:55:57.084Z,3.88
2023-03-25T11:58:31.654Z,4.72
2023-03-25T12:01:05.292Z,4.45
2023-03-25T12:03:35.232Z,6.80
2023-03-25T12:06:06.383Z,4.57
2023-03-25T12:08:43.758Z,2.53
2023-03-25T12:11:17.467Z,2.60
2023-03-25T12:13:58.718Z,3.45
2023-03-25T12:16:34.093Z,4.43
2023-03-25T12:19:12.425Z,2.75
2023-03-25T12:21:55.004Z,2.65
2023-03-25T12:24:41.595Z,6.47
2023-03-25T12:27:25.407Z,1.85
2023-03-25T12:30:04.075Z,2.50
2023-03-25T12:32:43.244Z,5.95
2023-03-25T12:35:26.189Z,10.75
2023-03-25T12:38:07.713Z,6.47
2023-03-25T12:40:52.054Z,5.78
2023-03-25T12:43:29.885Z,7.13
2023-03-25T12:46:14.320Z,3.78
2023-03-25T12:48:57.802Z,3.58
2023-03-25T12:51:35.577Z,3.65
2023-03-25T12:54:12.535Z,2.83
2023-03-25T12:56:47.888Z,3.83
2023-03-25T12:59:38.565Z,2.63
2023-03-25T13:02:20.872Z,2.95
2023-03-25T13:04:58.104Z,3.92
2023-03-25T13:07:29.548Z,4.22
2023-03-25T13:10:06.614Z,6.32
2023-03-25T13:12:37.405Z,5.15
2023-03-25T13:15:17.854Z,5.97
2023-03-25T13:17:54.729Z,4.32
2023-03-25T13:20:25.850Z,6.20
2023-03-25T13:22:57.808Z,4.85
2023-03-25T13:25:28.212Z,7.07
2023-03-25T13:27:59.435Z,6.18
2023-03-25T13:30:32.405Z,8.43
2023-03-25T13:33:08.149Z,6.25
2023-03-25T13:35:43.223Z,7.03
2023-03-25T13:38:18.367Z,8.18
2023-03-25T13:40:53.073Z,7.00
2023-03-25T13:43:29.908Z,7.93
2023-03-25T13:46:03.254Z,5.20
2023-03-25T13:48:39.190Z,4.43
2023-03-25T13:51:08.469Z,4.70
2023-03-25T13:53:38.571Z,4.82
2023-03-25T13:56:33.705Z,4.18
2023-03-25T13:59:35.346Z,5.38
2023-03-25T14:02:24.962Z,6.07
2023-03-25T14:05:22.374Z,5.57
2023-03-25T14:08:17.488Z,6.63
2023-03-25T14:10:54.567Z,4.38
2023-03-25T14:13:27.899Z,3.83
2023-03-25T14:16:01.374Z,3.70
2023-03-25T14:18:31.923Z,2.95
2023-03-25T14:21:13.147Z,3.72
2023-03-25T14:23:44.203Z,4.38
2023-03-25T14:26:12.849Z,3.13
2023-03-25T14:28:43.692Z,2.08
2023-03-25T14:31:29.589Z,4.18
2023-03-25T14:34:34.000Z,4.80
2023-03-25T14:37:18.193Z,1.98
2023-03-25T14:39:47.292Z,4.38
2023-03-25T14:42:28.600Z,3.40
2023-03-25T14:45:36.907Z,3.13
2023-03-25T14:48:22.972Z,3.63
2023-03-25T14:51:09.565Z,4.70
2023-03-25T14:53:38.694Z,5.78
2023-03-25T14:56:16.528Z,3.25
2023-03-25T14:58:44.956Z,4.20
2023-03-25T15:01:17.792Z,6.43
2023-03-25T15:03:47.296Z,4.30
2023-03-25T15:06:17.983Z,4.25
2023-03-25T15:08:55.003Z,8.73
2023-03-25T15:11:34.422Z,5.85
2023-03-25T15:14:05.398Z,7.70
2023-03-25T15:16:37.247Z,8.43
2023-03-25T15:19:09.590Z,3.50
2023-03-25T15:22:23.168Z,4.43
2023-03-25T15:24:56.460Z,5.47
2023-03-25T15:27:40.124Z,5.47
2023-03-25T15:30:25.359Z,5.13
2023-03-25T15:33:11.175Z,3.50
2023-03-25T15:35:53.449Z,8.50
2023-03-25T15:38:46.512Z,6.78
2023-03-25T15:41:43.319Z,3.72
2023-03-25T15:44:45.484Z,4.30
2023-03-25T15:47:34.676Z,5.50
2023-03-25T15:50:33.479Z,1.88
2023-03-25T15:53:46.514Z,3.28
2023-03-25T15:56:17.225Z,2.55
2023-03-25T15:58:51.195Z,5.03
2023-03-25T16:01:25.884Z,3.42
2023-03-25T16:04:00.560Z,3.65
2023-03-25T16:06:29.451Z,3.67
2023-03-25T16:08:59.369Z,2.72
2023-03-25T16:11:29.174Z,2.88
2023-03-25T16:14:06.157Z,2.70
2023-03-25T16:16:36.261Z,2.03
2023-03-25T16:19:06.118Z,3.28
2023-03-25T16:21:34.123Z,2.85
2023-03-25T16:24:05.203Z,3.75
2023-03-25T16:26:46.525Z,1.98
2023-03-25T16:29:18.883Z,6.57
2023-03-25T16:31:58.973Z,5.68
2023-03-25T16:34:28.741Z,5.15
2023-03-25T16:36:57.023Z,8.20
2023-03-25T16:39:26.081Z,23.33
2023-03-25T16:42:01.869Z,7.45
2023-03-25T16:44:29.947Z,3.53
2023-03-25T16:47:01.074Z,5.95
2023-03-25T16:49:32.044Z,2.80
2023-03-25T16:52:02.172Z,4.25
2023-03-25T16:54:36.099Z,1.48
2023-03-25T16:57:06.839Z,2.58
2023-03-25T16:59:36.295Z,1.58
2023-03-25T17:02:25.446Z,2.53
2023-03-25T17:04:56.536Z,5.10
2023-03-25T17:07:28.661Z,4.15
2023-03-25T17:09:59.686Z,1.88
2023-03-25T17:12:29.762Z,2.55
2023-03-25T17:15:04.288Z,1.65
2023-03-25T17:17:40.304Z,4.72
2023-03-25T17:20:16.199Z,7.57
2023-03-25T17:22:59.320Z,16.02
2023-03-25T17:25:28.683Z,15.15
2023-03-25T17:27:57.304Z,11.10
2023-03-25T17:30:40.764Z,4.30
2023-03-25T17:33:14.480Z,2.45
2023-03-25T17:35:45.131Z,2.67
2023-03-25T17:38:22.285Z,2.60
2023-03-25T17:40:59.116Z,3.47
2023-03-25T17:43:28.593Z,4.45
2023-03-25T17:45:56.439Z,5.75
2023-03-25T17:48:26.332Z,6.15
2023-03-25T17:50:55.993Z,7.30
2023-03-25T17:53:24.043Z,8.68
2023-03-25T17:55:52.599Z,7.35
2023-03-25T17:58:21.214Z,3.20
2023-03-25T18:00:50.208Z,8.60
2023-03-25T18:03:19.951Z,3.45
2023-03-25T18:05:50.962Z,5.00
2023-03-25T18:08:19.577Z,6.60
2023-03-25T18:10:47.213Z,6.38
2023-03-25T18:13:14.942Z,5.53
2023-03-25T18:15:42.664Z,6.97
2023-03-25T18:18:16.380Z,3.53
2023-03-25T18:20:45.889Z,7.40
2023-03-25T18:23:16.066Z,8.27
2023-03-25T18:25:45.320Z,3.83
2023-03-25T18:28:14.357Z,4.75
2023-03-25T18:30:46.718Z,7.60
2023-03-25T18:33:15.690Z,13.38
2023-03-25T18:35:43.678Z,14.85
2023-03-25T18:38:19.003Z,17.20
2023-03-25T18:40:47.474Z,6.63
2023-03-25T18:43:15.616Z,9.38
2023-03-25T18:45:43.787Z,6.43
2023-03-25T18:48:13.631Z,6.50
2023-03-25T18:50:46.283Z,12.50
2023-03-25T18:53:17.077Z,5.82
2023-03-25T18:55:45.936Z,9.75
2023-03-25T18:58:18.458Z,13.75
2023-03-25T19:00:47.819Z,9.43
2023-03-25T19:03:16.077Z,8.40
2023-03-25T19:05:46.297Z,3.80
2023-03-25T19:08:20.387Z,5.88
2023-03-25T19:10:48.514Z,8.43
2023-03-25T19:13:19.915Z,6.78
2023-03-25T19:15:47.590Z,5.53
2023-03-25T19:18:18.603Z,6.63
2023-03-25T19:20:47.306Z,7.45
2023-03-25T19:23:16.640Z,20.05
2023-03-25T19:25:47.488Z,9.55
2023-03-25T19:28:16.689Z,10.73
2023-03-25T19:30:46.189Z,6.05
2023-03-25T19:33:15.502Z,13.30
2023-03-25T19:35:49.666Z,8.48
2023-03-25T19:38:22.644Z,11.00
2023-03-25T19:40:52.934Z,14.90
2023-03-25T19:43:20.681Z,13.05
2023-03-25T19:45:48.353Z,13.95
2023-03-25T19:48:16.297Z,10.48
2023-03-25T19:50:43.966Z,10.43
2023-03-25T19:53:11.551Z,16.08
2023-03-25T19:55:43.276Z,15.88
2023-03-25T19:58:12.261Z,9.07
2023-03-25T20:00:39.987Z,17.23
2023-03-25T20:03:07.730Z,12.18
2023-03-25T20:05:36.322Z,14.30
2023-03-25T20:08:04.279Z,9.98
2023-03-25T20:10:32.911Z,17.30
2023-03-25T20:13:00.829Z,19.50
2023-03-25T20:15:29.819Z,14.45
2023-03-25T20:17:57.603Z,21.52
2023-03-25T20:20:25.770Z,20.92
2023-03-25T20:22:53.417Z,14.02
2023-03-25T20:25:21.346Z,15.45
2023-03-25T20:27:49.226Z,15.18
2023-03-25T20:30:19.406Z,12.95
2023-03-25T20:32:49.065Z,7.55
2023-03-25T20:35:18.152Z,17.98
2023-03-25T20:37:48.680Z,14.88
2023-03-25T20:40:18.352Z,18.17
2023-03-25T20:42:48.301Z,17.45
2023-03-25T20:45:18.289Z,13.57
2023-03-25T20:47:46.394Z,15.00
2023-03-25T20:50:17.588Z,17.10
2023-03-25T20:52:45.941Z,15.45
2023-03-25T20:55:13.722Z,18.00
2023-03-25T20:57:42.412Z,12.82
2023-03-25T21:00:13.043Z,16.17
2023-03-25T21:02:41.453Z,17.20
2023-03-25T21:05:09.613Z,18.08
2023-03-25T21:07:40.021Z,8.45
2023-03-25T21:10:09.129Z,13.50
2023-03-25T21:12:43.589Z,13.57
2023-03-25T21:15:13.033Z,12.88
2023-03-25T21:17:40.763Z,10.27
2023-03-25T21:20:10.103Z,13.30
2023-03-25T21:22:44.269Z,12.05
2023-03-25T21:25:14.067Z,23.90
2023-03-25T21:27:42.142Z,12.00
2023-03-25T21:30:11.073Z,17.15
2023-03-25T21:32:38.861Z,9.25
2023-03-25T21:35:07.804Z,13.82
2023-03-25T21:37:38.346Z,15.20
2023-03-25T21:40:10.329Z,16.55
2023-03-25T21:42:39.011Z,8.77
2023-03-25T21:45:08.724Z,12.30
2023-03-25T21:47:36.875Z,12.73
2023-03-25T21:50:09.323Z,8.82
2023-03-25T21:52:37.360Z,8.60
2023-03-25T21:55:07.465Z,14.27
2023-03-25T21:57:38.219Z,11.77
2023-03-25T22:00:08.657Z,10.48
2023-03-25T22:02:43.766Z,9.98
2023-03-25T22:05:12.203Z,14.43
2023-03-25T22:07:40.584Z,16.48
2023-03-25T22:10:11.338Z,17.55
2023-03-25T22:12:39.229Z,10.98
2023-03-25T22:15:08.398Z,9.73
2023-03-25T22:17:36.227Z,14.07
2023-03-25T22:20:05.945Z,11.02
2023-03-25T22:22:33.672Z,16.38
2023-03-25T22:25:02.099Z,13.45
2023-03-25T22:27:31.109Z,14.50
2023-03-25T22:29:58.802Z,12.40
2023-03-25T22:32:27.547Z,9.00
2023-03-25T22:34:55.347Z,9.73
2023-03-25T22:37:23.848Z,11.10
2023-03-25T22:39:51.479Z,10.10
2023-03-25T22:42:19.106Z,6.68
2023-03-25T22:44:48.347Z,9.88
2023-03-25T22:47:16.165Z,8.88
2023-03-25T22:49:43.784Z,10.23
2023-03-25T22:52:12.537Z,12.90
2023-03-25T22:54:40.225Z,6.03
2023-03-25T22:57:07.890Z,9.13
2023-03-25T22:59:35.584Z,16.10
2023-03-25T23:02:04.755Z,14.60
2023-03-25T23:04:32.500Z,15.90
2023-03-25T23:07:08.061Z,14.00
2023-03-25T23:09:44.108Z,18.77
2023-03-25T23:12:13.906Z,17.63
2023-03-25T23:14:43.416Z,14.50
2023-03-25T23:17:12.607Z,12.93
2023-03-25T23:19:40.685Z,18.33
2023-03-25T23:22:08.783Z,13.57
2023-03-25T23:24:37.505Z,10.43
2023-03-25T23:27:07.091Z,13.48
2023-03-25T23:29:39.205Z,19.30
2023-03-25T23:32:08.890Z,13.38
2023-03-25T23:34:40.520Z,19.45
2023-03-25T23:37:09.608Z,10.48
2023-03-25T23:39:40.410Z,8.50
2023-03-25T23:42:08.359Z,13.82
2023-03-25T23:44:36.268Z,18.73
2023-03-25T23:47:04.705Z,12.52
2023-03-25T23:49:33.205Z,12.95
2023-03-25T23:52:02.293Z,11.20
2023-03-25T23:54:33.454Z,14.18
2023-03-25T23:57:02.173Z,18.08
2023-03-25T23:59:29.967Z,12.13
